Pagrindinis puslapis
METAR-TAF:

METAR-TAF

Oro uostai :

Batajnica, Serbija

platuma: 44-56-07N, ilguma: 020-15-27E, Aukštis: 86 m

Dabartinis oras

Ataskaita buvo paskelbta 13 minutes, ne 20:30 UTC
Vėjas 4 kt iš Vakarų/Pietvakarių, svyruoja nuo Pietų/Pietvakarių ir Vakarų
Temperatūra 0°C
Drėgmė 100%
Slėgis 1047 hPa
Matomumas: 2500 m
Išsisklaidę debesys ne aukštis 400 ft
Su prošvaistėmis ne aukštis 3300 ft
rūkana

METAR: LYBT 202030Z 24004KT 210V270 2500 BR SCT004 BKN033 M00/M00 Q1047 NOSIG

Laikas: 21:43 (20:43 UTC)

Prognozė

Ataskaita buvo paskelbta 3 valandos ir 43 minutes, ne 17:00 UTC
Prognozė galioja nuo 20 metu 18 UTC su 21 metu 18 UTC
Vėjas 6 kt iš Vakarų/Pietvakarių
Matomumas: 3000 m
Išsisklaidę debesys ne aukštis 1000 ft
Su prošvaistėmis ne aukštis 3000 ft
rūkana
Tapsmas
nuo 20 metu 21 UTC su 20 metu 23 UTC
Matomumas: 1500 m
Tapsmas
nuo 21 metu 08 UTC su 21 metu 10 UTC
Matomumas: 6000 m

TAF: LYBT 201700Z 2018/2118 24006KT 3000 BR SCT010 BKN030 TX03/2112Z TNM01/2106Z BECMG 2021/2023 1500 BECMG 2108/2110 6000 NSW

Orai ataskaitas ir orų prognozės (METAR, TAF).

turimą stotys yra geltonos ir raudonos taškus žemėlapyje.

Perkelti pele per norėdami pamatyti stoties vardą.

Tada spustelėkite, norėdami matyti oro stebėjimo ir prognozės.

Norėdami pakeisti žemėlapį: spustelėkite ant žalios mygtukų su juodo kryžiaus žemyn,; žalią mygtuką su brūkšneliu, jei norite nutolinti; arba žalių rodyklių gretimoms žemėlapius.


METAR-TAF: